^^

Nearby METAR Reports

METAR (Meteorological Aerodrome Report) are Airport generated local weather condition reports for use, predominantly by pilots, these reports are also used as part of compliment of data sets required for Chatteris Weathers prediction software - WxSim.

EGUN - Mildenhall Raf, United Kingdom
Distance from station: ESE 19mi, 31km
Updated: 09/12/2019 05:44
Overcast
Overcast
 Wind from W
Wind: W 14 mph , 22 km/h
Temperature: 6°C
Wind Chill: 2°C
Dew Point: 6°C
Humidity: 100%
Barometer: 993.9 hPa
Clouds: Overcast
Visibility: 6 miles , 10 km
Cloud details: Partly cloudy 792 m
Mostly cloudy 1006 m
Overcast 1372 m
2019/12/09 05:44 EGUN 090544Z 28012KT 9999 SCT026 BKN033 OVC045 06/06 A2935 RMK AO2A RAB0458E09 SLP942 $
EGSC - Cambridge, United Kingdom
Distance from station: SSE 20mi, 32km
Updated: 06/12/2019 17:50
NOT Current
Light rain, Showers, Partly cloudy
Light rain, Showers, Partly cloudy
 Wind from W
Wind: W 17 mph , 28 km/h
Temperature: 10°C
Wind Chill: 7°C
Dew Point: 8°C
Humidity: 88%
Barometer: 1001 hPa
Summary: Light rain, Showers
Clouds: Partly cloudy
Visibility: 6 miles , 9 km
Cloud details: Few Clouds 91 m
Partly cloudy 732 m
2019/12/06 17:50 EGSC 061750Z 27015KT 9000 -SHRA FEW003 SCT024 10/08 Q1001 RESHRA
 
EGUL - Lakenheath Raf, United Kingdom
Distance from station: E 22mi, 36km
Updated: 09/12/2019 05:50
Mostly cloudy
Mostly cloudy
 Wind from W
Wind: W 15 mph , 24 km/h
Temperature: 6°C
Wind Chill: 2°C
Dew Point: 4°C
Humidity: 87%
Barometer: 994.2 hPa
Clouds: Mostly cloudy
Visibility: 6 miles , 10 km
Cloud details: Mostly cloudy 792 m
Mostly cloudy 1006 m
Mostly cloudy 1341 m
2019/12/09 05:50 EGUL 090550Z AUTO 28013KT 9999 BKN026 BKN033 BKN044 06/04 A2936 RMK AO2 DZB41E50 SLP946 $
EGXT - Wittering Raf, United Kingdom
Distance from station: WNW 24mi, 38km
Updated: 09/12/2019 04:50
Mostly cloudy
Mostly cloudy
 Wind from W
Wind: W 16 mph , 26 km/h
Temperature: 6°C
Wind Chill: 2°C
Dew Point: 4°C
Humidity: 87%
Barometer: 993 hPa
Clouds: Mostly cloudy
Visibility: 6 miles , 10 km
Cloud details: Few Clouds 1006 m
Mostly cloudy 1158 m
Mostly cloudy 2134 m
2019/12/09 04:50 EGXT 090450Z AUTO 28014KT 9999 FEW033/// BKN038/// BKN070/// 06/04 Q0993
 
EGYH - Holbeach (aut), United Kingdom
Distance from station: N 27mi, 44km
Updated: 06/12/2019 10:50
NOT Current
Light drizzle, Overcast
Light drizzle, Overcast
 Wind from WSW
Wind: WSW 20 mph , 31 km/h
Temperature: 11°C
Dew Point: 11°C
Humidity: 100%
Barometer: 1000 hPa
Summary: Light Drizzle
Clouds: Overcast
Visibility: 6 miles , 10 km
Cloud details: Mostly cloudy 183 m
Overcast 549 m
2019/12/06 10:50 EGYH 061050Z 24017KT 9999 -DZ BKN006 OVC018 11/11 Q1000 RMK YLO1
EGSS - Stansted Airport, United Kingdom
Distance from station: SE 11mi, 18km
Updated: 09/12/2019 05:50
Mostly cloudy
Mostly cloudy
 Wind from WNW
Wind: WNW 10 mph , 17 km/h
Temperature: 6°C
Wind Chill: 3°C
Dew Point: 5°C
Humidity: 93%
Barometer: 995 hPa
Clouds: Mostly cloudy
Visibility: 6 miles , 10 km
Cloud details: Partly cloudy 274 m
Mostly cloudy 1128 m
2019/12/09 05:50 EGSS 090550Z AUTO 30009KT 9999 SCT009 BKN037 06/05 Q0995
 
EGGW - Luton Airport, United Kingdom
Distance from station: WSW 19mi, 31km
Updated: 09/12/2019 05:50
Overcast
Overcast
 Wind from NW
Wind: NW 18 mph , 30 km/h
Temperature: 6°C
Wind Chill: 2°C
Dew Point: 5°C
Humidity: 93%
Barometer: 996 hPa
Clouds: Overcast
Visibility: 6 miles , 10 km
Cloud details: Mostly cloudy 305 m
Mostly cloudy 1128 m
Overcast 1402 m
2019/12/09 05:50 EGGW 090550Z AUTO 31016KT 9999 BKN010 BKN037 OVC046 06/05 Q0996
EGLL - London/Heathrow, United Kingdom
Distance from station: SSW 41mi, 66km
Updated: 09/12/2019 05:20
Mostly cloudy
Mostly cloudy
 Wind from WNW
Wind: WNW 14 mph , 22 km/h
Temperature: 9°C
Wind Chill: 6°C
Dew Point: 6°C
Humidity: 82%
Barometer: 995 hPa
Clouds: Mostly cloudy
Visibility: 6 miles , 10 km
Cloud details: Mostly cloudy 671 m
Mostly cloudy 1189 m
2019/12/09 05:20 EGLL 090520Z AUTO 30012KT 270V340 9999 BKN022 BKN039 09/06 Q0995 NOSIG
 
EGKK - London/Gatwick A, United Kingdom
Distance from station: S 60mi, 97km
Updated: 09/12/2019 05:50
Partly cloudy
Partly cloudy
 Wind from NW
Wind: NW 22 mph , 35 km/h
Temperature: 8°C
Wind Chill: 3°C
Dew Point: 6°C
Humidity: 87%
Barometer: 996 hPa
Clouds: Partly cloudy
Visibility: 6 miles , 10 km
Cloud details: Few Clouds 213 m
Partly cloudy 640 m
2019/12/09 05:50 EGKK 090550Z 31019KT 9999 FEW007 SCT021 08/06 Q0996
EGUY - Wyton Raf, United Kingdom
Distance from station: SW 11mi, 18km
Updated: 04/10/2015 09:50
NOT Current
Haze, Clear
Haze, Clear
 Wind from SSE
Wind: SSE 2 mph , 4 km/h
Temperature: 11°C
Dew Point: 7°C
Humidity: 77%
Barometer: 1014 hPa
Summary: Haze
Clouds: Clear
Visibility: 4 miles , 6 km
2015/10/04 08:50 EGUY 040850Z 15002KT 6000 HZ SKC 11/07 Q1014 WHT

Met Office METAR data link, decoding METAR data code.